Hovedside
METAR-TAF:

METAR-TAF

Lufthavner :

Pskov, Russland

breddegrad: 57-47-06N, lengdegrad: 028-23-54E, høyde over havet: 47 m

Gjeldene værobservasjon

Denne rapporten ble laget for 1 time og 6 minutter siden, klokken 04:00 UTC
Vind 4 kt fra Sør-sørvest
Temperatur 14°C
Luftfuktighet 94%
Trykk 1015 hPa
Sikt: 8000 m

METAR: ULOO 210400Z AUTO 20002MPS 8000 // ///058/// 14/13 Q1015 RMK QFE757

Tid: 08:06 (05:06 UTC)

Varsel

Denne rapporten ble laget for 18 timer og 9 minutter siden, klokken 10:57 UTC
Varsel gyldig fra 20. klokken 12 UTC til 20. klokken 21 UTC
Vind 6 kt fra Sør-sørvest
Sikt: 6000 m
Brutte skyer i en høyde av 3000 ft
Blir
fra 20. klokken 18 UTC til 20. klokken 20 UTC
Sikt: 3100 m
Brutte skyer i en høyde av 1100 ft
dis

TAF: ULOO 201057Z 2012/2021 21003MPS 6000 BKN030 BECMG 2018/2020 3100 BR BKN011

Værobservasjoner og værvarsel for over 4000 flyplasser (METAR- og TAF-rapporter).

Tilgjengelige stasjoner er representert av de røde og gule prikkene på kartet.

Hold musepekeren over prikken for å se navnet på stasjonen.

Klikk så for å se værobservasjoner og -varsler.

For å forandre kartet kan du klikke på den grønne knappen med svart kryss for å zoome inn, på den grønne knappen med strek for å zoome ut, eller på de grønne pilene for å se tilstøtende kart.


METAR-TAF: